Norris Rancho Marino Reserve, California Weather observations

Data are for 10 minute period ending at time listed.
 Day   Time   Solar   Ave.   Ave.  Ave.  Vector  Max.   Baro.   Total    
  of    of     Rad.   Air    Rel.  Wind   Wind   Wind  Press.  Precip.   
Year   Day            Temp.  Hum.  Speed  Dir.   Gust                    
2014   (PST)  Kw/m2    F      %     mph   deg.    mph    mb.     in.     
-------------------------------------------------------------------------
 208    7:20   0.10   58.2    99    0.7   191     2.0   1013.3    0.00 
 208    7:30   0.12   58.2    99    1.1   236     3.8   1013.3    0.00 
 208    7:40   0.14   58.2    99    1.2   214     2.0   1013.3    0.00 
 208    7:50   0.14   58.3    99    1.4   210     2.7   1013.4    0.00 
 208    8:00   0.16   58.2    99    2.0   228     3.4   1013.3    0.00 
 208    8:10   0.19   58.3    99    2.3   240     5.0   1013.3    0.00 
 208    8:20   0.22   57.9    99    2.3   261     5.3   1013.3    0.00 
 208    8:30   0.28   58.4    99    2.5   220     4.0   1013.3    0.00 
 208    8:40   0.25   58.4    99    3.5   243     4.8   1013.4    0.00 
 208    8:50   0.27   58.4    99    4.3   259     6.6   1013.5    0.00 
 208    9:00   0.29   58.3    99    4.6   268     6.6   1013.4    0.00 
 208    9:10   0.46   58.7    99    4.3   250     7.6   1013.3    0.00 
 208    9:20   0.43   59.0    99    5.4   263     7.5   1013.2    0.00 
 208    9:30   0.48   58.9    99    5.4   270     7.2   1013.2    0.00 
 208    9:40   0.57   59.4    99    5.4   281     7.8   1013.1    0.00 
 208    9:50   0.60   60.3    98    5.8   289     9.1   1013.0    0.00 
 208   10:00   0.48   60.4    97    6.7   288     9.8   1013.0    0.00 
 208   10:10   0.48   60.6    96    5.8   285     8.0   1013.1    0.00 
 208   10:20   0.47   61.1    94    5.2   288     7.9   1013.1    0.00 
 208   10:30   0.42   61.6    91    5.0   274     7.4   1013.3    0.00 
 208   10:40   0.47   61.8    91    4.5   270     7.5   1013.4    0.00 
 208   10:50   0.53   62.4    89    4.2   259     7.2   1013.4    0.00 
 208   11:00   0.49   62.3    89    5.3   271     7.6   1013.3    0.00 
 208   11:10   0.46   62.2    89    4.8   270     6.6   1013.3    0.00 
 208   11:20   0.51   62.5    88    4.8   264     6.6   1013.2    0.00 
 208   11:30   0.56   63.0    87    4.5   270     6.4   1013.2    0.00 
 208   11:40   0.66   63.1    87    4.2   264     7.2   1013.1    0.00 
 208   11:50   0.60   63.2    87    4.5   278     6.4   1013.0    0.00 
 208   12:00   0.54   63.5    86    4.4   271     7.1   1013.0    0.00 
 208   12:10   0.57   63.5    86    4.4   261     6.9   1013.1    0.00 
 208   12:20   0.57   64.1    85    4.4   272     6.1   1013.1    0.00 
 208   12:30   0.58   64.4    84    5.0   280     7.5   1013.0    0.00 
 208   12:40   0.65   64.4    84    5.8   289     8.2   1012.7    0.00 
 208   12:50   0.66   64.6    83    5.8   280     8.9   1012.7    0.00 
 208   13:00   0.70   64.3    84    4.8   278     8.1   1012.7    0.00 
 208   13:10   0.67   64.3    84    5.6   275     7.7   1012.6    0.00 
 208   13:20   0.61   64.1    84    4.8   277     8.0   1012.6    0.00 
 208   13:30   0.58   64.1    84    6.5   284     8.6   1012.6    0.00 
 208   13:40   0.55   63.5    86    6.9   288     9.6   1012.6    0.00 
 208   13:50   0.53   63.4    86    7.0   284     8.9   1012.6    0.00 
 208   14:00   0.60   64.1    84    7.2   287     9.5   1012.5    0.00 
 208   14:10   0.60   64.4    84    6.7   287     9.3   1012.5    0.00 
 208   14:20   0.64   64.6    83    6.6   284     9.6   1012.5    0.00 
 208   14:30   0.64   64.6    83    8.2   288    10.7   1012.4    0.00 
 208   14:40   0.68   65.0    82    7.1   286    10.2   1012.6    0.00 
 208   14:50   0.71   65.2    82    6.7   287     8.7   1012.6    0.00 
 208   15:00   0.73   65.8    80    6.3   292     8.7   1012.5    0.00 
 208   15:10   0.69   65.5    81    6.1   287     9.0   1012.6    0.00 
 208   15:20   0.68   65.3    81    6.7   287     9.1   1012.6    0.00 
 208   15:30   0.65   65.7    80    6.5   292     8.7   1012.5    0.00 
 208   15:40   0.61   65.9    80    6.8   286     8.7   1012.5    0.00 
 208   15:50   0.59   65.3    81    5.6   282     8.2   1012.5    0.00 
 208   16:00   0.56   65.2    81    5.1   273     7.1   1012.4    0.00 
 208   16:10   0.54   65.0    82    5.1   262     7.0   1012.3    0.00 
 208   16:20   0.49   65.1    82    3.4   224     5.4   1012.5    0.00 
 208   16:30   0.47   64.9    83    2.6   215     3.5   1012.5    0.00 
 208   16:40   0.44   66.0    80    2.0   204     3.6   1012.5    0.00 
 208   16:50   0.41   66.0    80    2.1   209     3.6   1012.4    0.00 
 208   17:00   0.38   66.0    80    2.0   212     3.4   1012.3    0.00 
 208   17:10   0.34   65.1    82    2.8   234     5.0   1012.1    0.00 
 208   17:20   0.31   65.4    82    3.4   273     5.5   1012.0    0.00 
 208   17:30   0.28   64.1    84    4.0   262     5.3   1011.9    0.00 
 208   17:40   0.24   64.0    85    3.7   264     5.3   1012.0    0.00 
 208   17:50   0.21   64.7    83    2.7   280     4.3   1012.1    0.00 
 208   18:00   0.18   64.3    83    3.7   282     4.9   1012.1    0.00 
 208   18:10   0.15   63.7    85    4.2   290     5.3   1012.1    0.00 
 208   18:20   0.12   63.5    86    4.9   287     6.4   1012.1    0.00 
 208   18:30   0.10   63.5    86    5.0   286     6.1   1012.1    0.00 
 208   18:40   0.08   63.5    86    5.2   285     6.5   1012.2    0.00 
 208   18:50   0.05   63.2    87    5.7   287     7.1   1012.3    0.00 
 208   19:00   0.03   62.7    88    5.8   288     6.9   1012.4    0.00 
 208   19:10   0.01   62.4    89    5.0   301     6.5   1012.6    0.00 
 208   19:20   0.01   62.1    90    4.6   293     5.7   1012.7    0.00 
 208   19:30   0.00   62.0    90    4.6   305     6.4   1012.8    0.00 
 208   19:40   0.00   61.9    90    4.4   314     6.1   1012.9    0.00 
 208   19:50   0.00   62.3    90    4.2   326     6.6   1013.0    0.00 
 208   20:00   0.00   62.2    90    3.6   323     5.5   1013.0    0.00 
 208   20:10   0.00   62.2    91    3.8   317     6.3   1013.0    0.00 
 208   20:20   0.00   61.8    91    4.5   313     5.8   1013.1    0.00 
 208   20:30   0.00   61.9    91    3.4   328     5.7   1013.2    0.00 
 208   20:40   0.00   61.9    91    4.2   334     7.1   1013.2    0.00 
 208   20:50   0.00   61.7    92    4.4   328     5.8   1013.2    0.00 
 208   21:00   0.00   61.6    92    4.5   324     6.5   1013.2    0.00 
 208   21:10   0.00   61.6    92    5.1   325     7.5   1013.3    0.00 
 208   21:20   0.00   61.5    92    4.3   315     7.8   1013.2    0.00 
 208   21:30   0.00   61.3    93    2.6   322     4.4   1013.4    0.00 
 208   21:40   0.00   61.1    93    3.4   319     5.8   1013.2    0.00 
 208   21:50   0.00   60.9    93    2.8   324     4.1   1013.2    0.00 
 208   22:00   0.00   60.9    94    2.7   336     3.7   1013.2    0.00 
 208   22:10   0.00   60.8    94    3.3   319     5.0   1013.2    0.00 
 208   22:20   0.00   60.8    94    2.6   329     5.8   1013.2    0.00 
 208   22:30   0.00   60.9    94    4.5   324     6.9   1013.2    0.00 
 208   22:40   0.00   60.9    94    4.0   326     6.0   1013.1    0.00 
 208   22:50   0.00   60.8    94    3.4   329     6.6   1013.2    0.00 
 208   23:00   0.00   60.8    94    1.9   328     3.9   1013.2    0.00 
 208   23:10   0.00   60.4    93    1.3   300     3.8   1013.2    0.00 
 208   23:20   0.00   60.3    94    3.3   306     4.3   1013.1    0.00 
 208   23:30   0.00   60.3    94    2.7   312     4.2   1013.1    0.00 
 208   23:40   0.00   60.5    94    3.6   326     5.9   1013.2    0.00 
 208   23:50   0.00   60.7    94    3.9   313     5.8   1013.1    0.00 
 209    0:00   0.00   60.6    94    4.3   315     6.7   1012.9    0.00 
 209    0:10   0.00   60.6    94    5.2   316     7.5   1012.8    0.00 
 209    0:20   0.00   60.5    94    4.9   315     7.5   1012.7    0.00 
 209    0:30   0.00   60.4    95    4.7   312     6.8   1012.7    0.00 
 209    0:40   0.00   60.2    95    4.4   301     5.8   1012.7    0.00 
 209    0:50   0.00   60.2    95    5.3   301     7.1   1012.6    0.00 
 209    1:00   0.00   60.1    96    5.5   307     8.3   1012.6    0.00 
 209    1:10   0.00   60.0    96    6.4   310     8.0   1012.7    0.00 
 209    1:20   0.00   60.0    96    6.7   304     8.6   1012.7    0.00 
 209    1:30   0.00   59.9    96    6.4   301     9.2   1012.7    0.00 
 209    1:40   0.00   59.9    96    5.9   308     8.0   1012.6    0.00 
 209    1:50   0.00   59.7    96    6.9   310     9.0   1012.7    0.00 
 209    2:00   0.00   59.7    96    2.5   312     6.9   1012.9    0.00 
 209    2:10   0.00   59.6    96    5.0   314     8.5   1012.9    0.00 
 209    2:20   0.00   59.6    97    5.0   315     8.0   1012.9    0.00 
 209    2:30   0.00   59.6    97    2.3   303     5.5   1013.0    0.00 
 209    2:40   0.00   59.5    97    3.6   308     5.5   1013.0    0.00 
 209    2:50   0.00   59.5    97    3.2   304     4.2   1012.9    0.00 
 209    3:00   0.00   59.5    97    3.2   296     4.4   1012.9    0.00 
 209    3:10   0.00   59.5    97    4.4   294     6.1   1012.8    0.00 
 209    3:20   0.00   59.6    97    3.0   311     5.6   1013.0    0.00 
 209    3:30   0.00   59.7    97    2.0   321     4.7   1013.2    0.00 
 209    3:40   0.00   59.7    97    4.6   314     7.2   1013.2    0.00 
 209    3:50   0.00   59.7    97    4.0   328     6.8   1013.2    0.00 
 209    4:00   0.00   59.7    97    3.7   312     6.2   1013.4    0.00 
 209    4:10   0.00   59.6    97    0.9   284     3.1   1013.5    0.00 
 209    4:20   0.00   59.5    97    0.8   297     1.6   1013.5    0.00 
 209    4:30   0.00   59.5    97    1.1   207     2.8   1013.5    0.00 
 209    4:40   0.00   59.3    97    1.4   200     2.8   1013.5    0.00 
 209    4:50   0.00   59.3    97    1.1    91     2.1   1013.5    0.00 
 209    5:00   0.00   59.2    97    1.3   166     1.8   1013.6    0.00 
 209    5:10   0.00   59.0    97    0.9   204     2.5   1013.6    0.00 
 209    5:20   0.00   58.8    97    0.9   295     2.0   1013.7    0.00 
 209    5:30   0.01   58.8    97    1.2   306     1.6   1013.7    0.00 
 209    5:40   0.02   58.9    97    2.0   312     2.8   1013.8    0.00 
 209    5:50   0.03   59.3    97    0.7     8     1.8   1013.8    0.00 
 209    6:00   0.04   59.5    97    0.3   239     2.3   1014.0    0.00 
 209    6:10   0.05   59.6    97    1.2   252     3.1   1014.3    0.00 
 209    6:20   0.06   59.8    97    1.3    97     2.1   1014.5    0.00 
 209    6:30   0.07   60.2    97    1.6   119     2.0   1014.6    0.00 
 209    6:40   0.10   60.4    97    2.2   143     3.3   1014.8    0.00 
 209    6:50   0.12   60.7    96    3.2   141     4.5   1015.0    0.00 
 209    7:00   0.15   60.3    96    3.2   152     4.5   1015.1    0.00 
 209    7:10   0.24   60.5    95    3.1   157     4.1   1015.2    0.00 

Return to Norris Rancho Marino Reserve graphs page.


Western Regional Climate Center,wrcc@dri.edu